sensor_id;sensor_type;location;lat;lon;timestamp;pressure;altitude;pressure_sealevel;temperature;humidity
34979;BME280;21185;50.978;13.720;2023-04-26T00:01:00;98100.97;;;8.49;52.90
34979;BME280;21185;50.978;13.720;2023-04-26T00:06:05;98109.84;;;8.46;53.19
34979;BME280;21185;50.978;13.720;2023-04-26T00:11:10;98109.69;;;8.48;53.35
34979;BME280;21185;50.978;13.720;2023-04-26T00:16:13;98105.66;;;8.45;53.57
34979;BME280;21185;50.978;13.720;2023-04-26T00:21:15;98106.09;;;8.40;53.38
34979;BME280;21185;50.978;13.720;2023-04-26T00:26:17;98110.47;;;8.40;53.45
34979;BME280;21185;50.978;13.720;2023-04-26T00:31:19;98112.25;;;8.39;53.50
34979;BME280;21185;50.978;13.720;2023-04-26T00:36:21;98114.16;;;8.37;53.56
34979;BME280;21185;50.978;13.720;2023-04-26T00:41:23;98118.69;;;8.35;53.64
34979;BME280;21185;50.978;13.720;2023-04-26T00:46:25;98117.72;;;8.36;53.65
34979;BME280;21185;50.978;13.720;2023-04-26T00:51:32;98125.63;;;8.35;53.73
34979;BME280;21185;50.978;13.720;2023-04-26T00:56:35;98127.00;;;8.29;53.85
34979;BME280;21185;50.978;13.720;2023-04-26T01:01:37;98128.94;;;8.27;53.88
34979;BME280;21185;50.978;13.720;2023-04-26T01:06:41;98126.78;;;8.23;53.83
34979;BME280;21185;50.978;13.720;2023-04-26T01:11:43;98130.66;;;8.19;54.04
34979;BME280;21185;50.978;13.720;2023-04-26T01:16:45;98132.06;;;8.13;54.16
34979;BME280;21185;50.978;13.720;2023-04-26T01:21:48;98132.66;;;8.07;54.26
34979;BME280;21185;50.978;13.720;2023-04-26T01:26:50;98140.03;;;8.02;54.18
34979;BME280;21185;50.978;13.720;2023-04-26T01:31:53;98140.34;;;7.99;54.27
34979;BME280;21185;50.978;13.720;2023-04-26T01:36:55;98144.19;;;7.95;54.24
34979;BME280;21185;50.978;13.720;2023-04-26T01:41:57;98140.72;;;7.86;54.38
34979;BME280;21185;50.978;13.720;2023-04-26T01:46:59;98142.78;;;7.83;54.50
34979;BME280;21185;50.978;13.720;2023-04-26T01:52:02;98144.03;;;7.78;54.79
34979;BME280;21185;50.978;13.720;2023-04-26T01:57:04;98143.66;;;7.73;54.88
34979;BME280;21185;50.978;13.720;2023-04-26T02:02:05;98141.38;;;7.70;54.88
34979;BME280;21185;50.978;13.720;2023-04-26T02:07:11;98157.84;;;7.69;55.01
34979;BME280;21185;50.978;13.720;2023-04-26T02:12:19;98150.09;;;7.69;55.00
34979;BME280;21185;50.978;13.720;2023-04-26T02:17:21;98155.53;;;7.66;55.12
34979;BME280;21185;50.978;13.720;2023-04-26T02:22:23;98150.38;;;7.66;55.13
34979;BME280;21185;50.978;13.720;2023-04-26T02:27:28;98150.22;;;7.68;54.97
34979;BME280;21185;50.978;13.720;2023-04-26T02:32:30;98150.09;;;7.69;55.08
34979;BME280;21185;50.978;13.720;2023-04-26T02:37:32;98150.22;;;7.68;55.01
34979;BME280;21185;50.978;13.720;2023-04-26T02:42:35;98143.28;;;7.68;55.01
34979;BME280;21185;50.978;13.720;2023-04-26T02:47:37;98144.09;;;7.69;54.85
34979;BME280;21185;50.978;13.720;2023-04-26T02:52:39;98147.78;;;7.66;55.27
34979;BME280;21185;50.978;13.720;2023-04-26T02:57:41;98151.50;;;7.64;55.39
34979;BME280;21185;50.978;13.720;2023-04-26T03:02:44;98154.50;;;7.59;55.44
34979;BME280;21185;50.978;13.720;2023-04-26T03:07:46;98152.88;;;7.58;55.68
34979;BME280;21185;50.978;13.720;2023-04-26T03:12:48;98155.31;;;7.60;55.46
34979;BME280;21185;50.978;13.720;2023-04-26T03:17:50;98158.03;;;7.58;55.54
34979;BME280;21185;50.978;13.720;2023-04-26T03:22:53;98155.75;;;7.55;55.58
34979;BME280;21185;50.978;13.720;2023-04-26T03:27:55;98158.63;;;7.52;55.69
34979;BME280;21185;50.978;13.720;2023-04-26T03:32:57;98170.88;;;7.50;55.81
34979;BME280;21185;50.978;13.720;2023-04-26T03:37:59;98163.56;;;7.45;55.91
34979;BME280;21185;50.978;13.720;2023-04-26T03:43:02;98168.19;;;7.42;55.93
34979;BME280;21185;50.978;13.720;2023-04-26T03:48:04;98170.94;;;7.40;56.00
34979;BME280;21185;50.978;13.720;2023-04-26T03:53:06;98172.84;;;7.38;55.95
34979;BME280;21185;50.978;13.720;2023-04-26T03:58:08;98183.44;;;7.35;55.97
34979;BME280;21185;50.978;13.720;2023-04-26T04:03:10;98188.09;;;7.32;55.99
34979;BME280;21185;50.978;13.720;2023-04-26T04:08:14;98193.53;;;7.29;56.00
34979;BME280;21185;50.978;13.720;2023-04-26T04:13:16;98177.38;;;7.27;55.83
34979;BME280;21185;50.978;13.720;2023-04-26T04:18:18;98192.47;;;7.22;55.77
34979;BME280;21185;50.978;13.720;2023-04-26T04:23:20;98190.19;;;7.19;56.01
34979;BME280;21185;50.978;13.720;2023-04-26T04:28:22;98199.56;;;7.20;55.99
34979;BME280;21185;50.978;13.720;2023-04-26T04:33:24;98198.59;;;7.21;55.94
34979;BME280;21185;50.978;13.720;2023-04-26T04:38:30;98201.84;;;7.23;55.86
34979;BME280;21185;50.978;13.720;2023-04-26T04:43:32;98201.56;;;7.26;55.80
34979;BME280;21185;50.978;13.720;2023-04-26T04:48:35;98208.34;;;7.27;55.62
34979;BME280;21185;50.978;13.720;2023-04-26T04:53:39;98212.94;;;7.33;55.51
34979;BME280;21185;50.978;13.720;2023-04-26T04:58:41;98214.66;;;7.42;55.39
34979;BME280;21185;50.978;13.720;2023-04-26T05:03:43;98218.72;;;7.44;55.61
34979;BME280;21185;50.978;13.720;2023-04-26T05:08:45;98215.19;;;7.45;55.36
34979;BME280;21185;50.978;13.720;2023-04-26T05:13:48;98226.63;;;7.43;55.49
34979;BME280;21185;50.978;13.720;2023-04-26T05:18:53;98232.75;;;7.42;55.45
34979;BME280;21185;50.978;13.720;2023-04-26T05:23:55;98232.22;;;7.38;55.68
34979;BME280;21185;50.978;13.720;2023-04-26T05:28:57;98235.06;;;7.35;55.56
34979;BME280;21185;50.978;13.720;2023-04-26T05:34:09;98235.31;;;7.42;55.77
34979;BME280;21185;50.978;13.720;2023-04-26T05:39:13;98248.63;;;7.47;55.88
34979;BME280;21185;50.978;13.720;2023-04-26T05:44:15;98251.97;;;7.57;55.67
34979;BME280;21185;50.978;13.720;2023-04-26T05:49:18;98258.31;;;7.63;55.96
34979;BME280;21185;50.978;13.720;2023-04-26T05:54:20;98259.38;;;7.70;56.10
34979;BME280;21185;50.978;13.720;2023-04-26T05:59:22;98264.19;;;7.83;56.13
34979;BME280;21185;50.978;13.720;2023-04-26T06:04:24;98252.09;;;7.83;56.22
34979;BME280;21185;50.978;13.720;2023-04-26T06:09:43;98263.38;;;7.82;56.30
34979;BME280;21185;50.978;13.720;2023-04-26T06:14:45;98258.59;;;7.87;56.43
34979;BME280;21185;50.978;13.720;2023-04-26T06:19:52;98264.38;;;7.99;56.16
34979;BME280;21185;50.978;13.720;2023-04-26T06:24:54;98267.25;;;7.96;56.04
34979;BME280;21185;50.978;13.720;2023-04-26T06:29:56;98264.94;;;7.93;56.02
34979;BME280;21185;50.978;13.720;2023-04-26T06:34:59;98267.19;;;8.05;56.00
34979;BME280;21185;50.978;13.720;2023-04-26T06:40:02;98271.91;;;8.10;55.73
34979;BME280;21185;50.978;13.720;2023-04-26T06:45:05;98270.28;;;8.27;55.46
34979;BME280;21185;50.978;13.720;2023-04-26T06:50:09;98277.09;;;8.28;55.13
34979;BME280;21185;50.978;13.720;2023-04-26T06:55:11;98286.84;;;8.16;55.08
34979;BME280;21185;50.978;13.720;2023-04-26T07:00:13;98288.91;;;8.30;55.02
34979;BME280;21185;50.978;13.720;2023-04-26T07:05:15;98279.84;;;8.44;54.56
34979;BME280;21185;50.978;13.720;2023-04-26T07:10:18;98280.06;;;8.51;54.43
34979;BME280;21185;50.978;13.720;2023-04-26T07:15:21;98286.34;;;8.48;54.04
34979;BME280;21185;50.978;13.720;2023-04-26T07:20:23;98281.63;;;8.43;53.96
34979;BME280;21185;50.978;13.720;2023-04-26T07:25:25;98292.03;;;8.52;53.97
34979;BME280;21185;50.978;13.720;2023-04-26T07:30:27;98296.78;;;8.38;53.66
34979;BME280;21185;50.978;13.720;2023-04-26T07:35:29;98294.09;;;8.30;53.68
34979;BME280;21185;50.978;13.720;2023-04-26T07:40:31;98280.16;;;8.59;53.61
34979;BME280;21185;50.978;13.720;2023-04-26T07:45:33;98278.47;;;8.93;52.96
34979;BME280;21185;50.978;13.720;2023-04-26T07:50:35;98297.91;;;9.23;52.84
34979;BME280;21185;50.978;13.720;2023-04-26T07:55:37;98284.09;;;9.15;52.69
34979;BME280;21185;50.978;13.720;2023-04-26T08:00:40;98291.41;;;8.93;52.37
34979;BME280;21185;50.978;13.720;2023-04-26T08:05:42;98288.34;;;8.98;51.90
34979;BME280;21185;50.978;13.720;2023-04-26T08:10:45;98291.25;;;8.95;51.11
34979;BME280;21185;50.978;13.720;2023-04-26T08:15:47;98298.81;;;8.88;50.96
34979;BME280;21185;50.978;13.720;2023-04-26T08:20:49;98292.13;;;9.03;50.29
34979;BME280;21185;50.978;13.720;2023-04-26T08:25:51;98304.91;;;9.31;49.29
34979;BME280;21185;50.978;13.720;2023-04-26T08:30:53;98301.28;;;9.50;48.76
34979;BME280;21185;50.978;13.720;2023-04-26T08:35:55;98300.97;;;9.53;47.86
34979;BME280;21185;50.978;13.720;2023-04-26T08:40:58;98305.38;;;9.26;48.36
34979;BME280;21185;50.978;13.720;2023-04-26T08:46:06;98297.66;;;9.08;48.29
34979;BME280;21185;50.978;13.720;2023-04-26T08:51:13;98303.34;;;9.12;48.75
34979;BME280;21185;50.978;13.720;2023-04-26T08:56:17;98299.94;;;9.12;48.55
34979;BME280;21185;50.978;13.720;2023-04-26T09:01:19;98299.84;;;9.21;48.28
34979;BME280;21185;50.978;13.720;2023-04-26T09:06:23;98302.94;;;9.25;47.97
34979;BME280;21185;50.978;13.720;2023-04-26T09:11:25;98300.75;;;9.38;48.01
34979;BME280;21185;50.978;13.720;2023-04-26T09:16:36;98309.16;;;9.40;48.02
34979;BME280;21185;50.978;13.720;2023-04-26T09:21:45;98308.00;;;9.34;47.67
34979;BME280;21185;50.978;13.720;2023-04-26T09:27:00;98310.06;;;9.57;47.16
34979;BME280;21185;50.978;13.720;2023-04-26T09:32:03;98304.31;;;9.79;47.21
34979;BME280;21185;50.978;13.720;2023-04-26T09:37:09;98297.19;;;9.73;47.06
34979;BME280;21185;50.978;13.720;2023-04-26T09:42:15;98313.47;;;9.57;47.00
34979;BME280;21185;50.978;13.720;2023-04-26T09:47:20;98315.34;;;9.47;47.27
34979;BME280;21185;50.978;13.720;2023-04-26T09:52:22;98316.66;;;9.51;47.27
34979;BME280;21185;50.978;13.720;2023-04-26T09:57:24;98303.63;;;9.69;46.44
34979;BME280;21185;50.978;13.720;2023-04-26T10:02:26;98308.66;;;9.70;46.06
34979;BME280;21185;50.978;13.720;2023-04-26T10:07:30;98320.97;;;9.68;46.01
34979;BME280;21185;50.978;13.720;2023-04-26T10:12:33;98308.63;;;9.62;46.19
34979;BME280;21185;50.978;13.720;2023-04-26T10:17:34;98300.63;;;9.90;45.87
34979;BME280;21185;50.978;13.720;2023-04-26T10:22:44;98301.28;;;10.34;45.59
34979;BME280;21185;50.978;13.720;2023-04-26T10:27:47;98300.63;;;10.40;45.34
34979;BME280;21185;50.978;13.720;2023-04-26T10:58:46;98292.50;;;10.51;44.56
34979;BME280;21185;50.978;13.720;2023-04-26T11:08:59;98289.44;;;10.64;43.38
34979;BME280;21185;50.978;13.720;2023-04-26T11:14:01;98292.03;;;10.56;43.32
34979;BME280;21185;50.978;13.720;2023-04-26T11:19:08;98301.41;;;10.49;42.82
34979;BME280;21185;50.978;13.720;2023-04-26T11:24:14;98303.38;;;10.47;42.52
34979;BME280;21185;50.978;13.720;2023-04-26T11:29:19;98307.56;;;10.48;41.68
34979;BME280;21185;50.978;13.720;2023-04-26T11:34:31;98297.53;;;10.45;41.02
34979;BME280;21185;50.978;13.720;2023-04-26T11:39:37;98301.25;;;10.58;41.43
34979;BME280;21185;50.978;13.720;2023-04-26T11:44:39;98299.78;;;10.96;41.62
34979;BME280;21185;50.978;13.720;2023-04-26T11:49:41;98307.59;;;11.04;41.32
34979;BME280;21185;50.978;13.720;2023-04-26T11:54:43;98302.88;;;10.92;41.13
34979;BME280;21185;50.978;13.720;2023-04-26T11:59:45;98307.09;;;10.85;41.40
34979;BME280;21185;50.978;13.720;2023-04-26T12:04:58;98305.16;;;10.87;41.61
34979;BME280;21185;50.978;13.720;2023-04-26T12:10:15;98312.13;;;10.94;41.95
34979;BME280;21185;50.978;13.720;2023-04-26T12:15:18;98309.22;;;10.89;42.39
34979;BME280;21185;50.978;13.720;2023-04-26T12:20:34;98317.31;;;10.86;42.30
34979;BME280;21185;50.978;13.720;2023-04-26T12:25:38;98311.81;;;10.97;42.36
34979;BME280;21185;50.978;13.720;2023-04-26T12:30:40;98318.13;;;10.95;41.62
34979;BME280;21185;50.978;13.720;2023-04-26T12:35:41;98310.34;;;10.79;40.80
34979;BME280;21185;50.978;13.720;2023-04-26T12:40:43;98318.63;;;10.90;41.58
34979;BME280;21185;50.978;13.720;2023-04-26T12:45:47;98312.13;;;10.86;41.37
34979;BME280;21185;50.978;13.720;2023-04-26T12:50:49;98309.69;;;10.77;41.21
34979;BME280;21185;50.978;13.720;2023-04-26T12:55:52;98313.09;;;10.69;41.38
34979;BME280;21185;50.978;13.720;2023-04-26T13:00:54;98323.50;;;10.69;41.33
34979;BME280;21185;50.978;13.720;2023-04-26T13:05:56;98311.16;;;10.79;41.48
34979;BME280;21185;50.978;13.720;2023-04-26T13:10:57;98320.09;;;10.85;41.09
34979;BME280;21185;50.978;13.720;2023-04-26T13:15:59;98318.44;;;11.08;40.79
34979;BME280;21185;50.978;13.720;2023-04-26T13:21:02;98306.78;;;11.04;40.53
34979;BME280;21185;50.978;13.720;2023-04-26T13:26:04;98315.84;;;11.00;40.93
34979;BME280;21185;50.978;13.720;2023-04-26T13:31:06;98316.50;;;10.94;41.32
34979;BME280;21185;50.978;13.720;2023-04-26T13:36:08;98310.03;;;10.90;41.35
34979;BME280;21185;50.978;13.720;2023-04-26T13:41:10;98314.09;;;10.84;41.41
34979;BME280;21185;50.978;13.720;2023-04-26T13:46:12;98328.03;;;10.83;41.29
34979;BME280;21185;50.978;13.720;2023-04-26T13:51:14;98316.34;;;10.87;41.27
34979;BME280;21185;50.978;13.720;2023-04-26T13:56:16;98324.63;;;10.83;40.57
34979;BME280;21185;50.978;13.720;2023-04-26T14:01:18;98318.63;;;10.82;40.89
34979;BME280;21185;50.978;13.720;2023-04-26T14:06:20;98323.16;;;10.88;41.14
34979;BME280;21185;50.978;13.720;2023-04-26T14:11:23;98320.25;;;10.99;41.14
34979;BME280;21185;50.978;13.720;2023-04-26T14:16:25;98319.91;;;11.11;41.31
34979;BME280;21185;50.978;13.720;2023-04-26T14:21:27;98332.56;;;11.14;41.38
34979;BME280;21185;50.978;13.720;2023-04-26T14:26:29;98333.22;;;11.08;40.98
34979;BME280;21185;50.978;13.720;2023-04-26T14:31:31;98331.28;;;11.01;40.72
34979;BME280;21185;50.978;13.720;2023-04-26T14:36:33;98333.56;;;10.96;40.73
34979;BME280;21185;50.978;13.720;2023-04-26T14:41:35;98325.75;;;10.96;40.77
34979;BME280;21185;50.978;13.720;2023-04-26T14:46:40;98325.44;;;10.99;40.78
34979;BME280;21185;50.978;13.720;2023-04-26T14:51:42;98337.59;;;10.91;40.49
34979;BME280;21185;50.978;13.720;2023-04-26T14:56:44;98329.66;;;10.84;40.79
34979;BME280;21185;50.978;13.720;2023-04-26T15:01:46;98331.28;;;10.85;40.90
34979;BME280;21185;50.978;13.720;2023-04-26T15:06:49;98331.59;;;10.90;41.34
34979;BME280;21185;50.978;13.720;2023-04-26T15:11:51;98337.78;;;10.89;41.29
34979;BME280;21185;50.978;13.720;2023-04-26T15:16:53;98334.19;;;10.82;41.42
34979;BME280;21185;50.978;13.720;2023-04-26T15:21:55;98340.84;;;10.77;41.35
34979;BME280;21185;50.978;13.720;2023-04-26T15:26:57;98333.88;;;10.69;41.42
34979;BME280;21185;50.978;13.720;2023-04-26T15:31:59;98342.13;;;10.64;41.71
34979;BME280;21185;50.978;13.720;2023-04-26T15:37:01;98340.19;;;10.66;41.75
34979;BME280;21185;50.978;13.720;2023-04-26T15:42:04;98342.63;;;10.68;41.58
34979;BME280;21185;50.978;13.720;2023-04-26T15:47:06;98340.34;;;10.73;41.78
34979;BME280;21185;50.978;13.720;2023-04-26T15:52:08;98344.91;;;10.71;41.86
34979;BME280;21185;50.978;13.720;2023-04-26T15:57:10;98346.19;;;10.67;41.87
34979;BME280;21185;50.978;13.720;2023-04-26T16:02:11;98339.06;;;10.69;42.14
34979;BME280;21185;50.978;13.720;2023-04-26T16:07:14;98345.72;;;10.63;42.21
34979;BME280;21185;50.978;13.720;2023-04-26T16:12:16;98340.66;;;10.54;42.29
34979;BME280;21185;50.978;13.720;2023-04-26T16:17:18;98345.53;;;10.49;42.09
34979;BME280;21185;50.978;13.720;2023-04-26T16:22:19;98338.38;;;10.43;41.96
34979;BME280;21185;50.978;13.720;2023-04-26T16:27:21;98344.72;;;10.40;41.81
34979;BME280;21185;50.978;13.720;2023-04-26T16:32:23;98340.31;;;10.41;42.00
34979;BME280;21185;50.978;13.720;2023-04-26T16:37:27;98345.19;;;10.44;42.10
34979;BME280;21185;50.978;13.720;2023-04-26T16:42:29;98339.69;;;10.47;42.10
34979;BME280;21185;50.978;13.720;2023-04-26T16:47:32;98339.19;;;10.51;42.09
34979;BME280;21185;50.978;13.720;2023-04-26T16:52:34;98346.81;;;10.53;41.99
34979;BME280;21185;50.978;13.720;2023-04-26T16:57:36;98342.94;;;10.49;42.09
34979;BME280;21185;50.978;13.720;2023-04-26T17:02:38;98350.88;;;10.47;42.11
34979;BME280;21185;50.978;13.720;2023-04-26T17:07:41;98359.31;;;10.49;42.35
34979;BME280;21185;50.978;13.720;2023-04-26T17:12:43;98362.88;;;10.48;42.40
34979;BME280;21185;50.978;13.720;2023-04-26T17:17:45;98356.38;;;10.44;42.40
34979;BME280;21185;50.978;13.720;2023-04-26T17:22:47;98368.84;;;10.41;42.42
34979;BME280;21185;50.978;13.720;2023-04-26T17:27:49;98368.53;;;10.35;42.43
34979;BME280;21185;50.978;13.720;2023-04-26T17:32:52;98379.06;;;10.34;42.67
34979;BME280;21185;50.978;13.720;2023-04-26T17:37:54;98379.22;;;10.32;42.65
34979;BME280;21185;50.978;13.720;2023-04-26T17:42:56;98377.78;;;10.30;42.80
34979;BME280;21185;50.978;13.720;2023-04-26T17:47:58;98380.19;;;10.23;42.92
34979;BME280;21185;50.978;13.720;2023-04-26T17:53:00;98383.75;;;10.22;42.88
34979;BME280;21185;50.978;13.720;2023-04-26T17:58:04;98385.81;;;10.19;43.09
34979;BME280;21185;50.978;13.720;2023-04-26T18:03:05;98387.41;;;10.12;42.97
34979;BME280;21185;50.978;13.720;2023-04-26T18:08:08;98384.78;;;10.03;42.84
34979;BME280;21185;50.978;13.720;2023-04-26T18:13:10;98388.50;;;10.01;43.08
34979;BME280;21185;50.978;13.720;2023-04-26T18:18:12;98401.59;;;9.99;43.24
34979;BME280;21185;50.978;13.720;2023-04-26T18:23:14;98405.31;;;9.97;43.32
34979;BME280;21185;50.978;13.720;2023-04-26T18:28:17;98405.63;;;9.94;43.36
34979;BME280;21185;50.978;13.720;2023-04-26T18:33:18;98414.38;;;9.93;43.40
34979;BME280;21185;50.978;13.720;2023-04-26T18:38:21;98406.91;;;9.90;43.57
34979;BME280;21185;50.978;13.720;2023-04-26T18:43:23;98415.81;;;9.87;43.56
34979;BME280;21185;50.978;13.720;2023-04-26T18:48:24;98420.47;;;9.84;43.68
34979;BME280;21185;50.978;13.720;2023-04-26T18:53:26;98421.75;;;9.80;43.77
34979;BME280;21185;50.978;13.720;2023-04-26T18:58:28;98419.16;;;9.80;44.01
34979;BME280;21185;50.978;13.720;2023-04-26T19:03:30;98423.53;;;9.79;44.23
34979;BME280;21185;50.978;13.720;2023-04-26T19:08:33;98426.94;;;9.80;44.40
34979;BME280;21185;50.978;13.720;2023-04-26T19:13:34;98435.84;;;9.77;44.65
34979;BME280;21185;50.978;13.720;2023-04-26T19:18:36;98437.59;;;9.77;44.73
34979;BME280;21185;50.978;13.720;2023-04-26T19:23:41;98442.13;;;9.74;45.03
34979;BME280;21185;50.978;13.720;2023-04-26T19:28:45;98432.88;;;9.72;45.16
34979;BME280;21185;50.978;13.720;2023-04-26T19:33:47;98435.63;;;9.70;45.08
34979;BME280;21185;50.978;13.720;2023-04-26T19:38:49;98441.94;;;9.68;45.23
34979;BME280;21185;50.978;13.720;2023-04-26T19:43:51;98444.66;;;9.66;45.25
34979;BME280;21185;50.978;13.720;2023-04-26T19:48:53;98444.66;;;9.66;45.33
34979;BME280;21185;50.978;13.720;2023-04-26T19:53:55;98446.59;;;9.64;45.55
34979;BME280;21185;50.978;13.720;2023-04-26T19:58:57;98449.34;;;9.63;45.57
34979;BME280;21185;50.978;13.720;2023-04-26T20:03:58;98439.78;;;9.63;45.63
34979;BME280;21185;50.978;13.720;2023-04-26T20:09:01;98446.09;;;9.61;45.89
34979;BME280;21185;50.978;13.720;2023-04-26T20:14:03;98447.22;;;9.58;45.93
34979;BME280;21185;50.978;13.720;2023-04-26T20:19:04;98449.28;;;9.55;46.14
34979;BME280;21185;50.978;13.720;2023-04-26T20:24:07;98447.81;;;9.52;46.25
34979;BME280;21185;50.978;13.720;2023-04-26T20:29:09;98442.28;;;9.47;46.21
34979;BME280;21185;50.978;13.720;2023-04-26T20:34:11;98453.22;;;9.41;46.33
34979;BME280;21185;50.978;13.720;2023-04-26T20:39:13;98446.50;;;9.30;46.36
34979;BME280;21185;50.978;13.720;2023-04-26T20:44:15;98446.59;;;9.21;46.40
34979;BME280;21185;50.978;13.720;2023-04-26T20:49:17;98443.28;;;9.11;46.38
34979;BME280;21185;50.978;13.720;2023-04-26T20:54:19;98432.19;;;9.00;46.75
34979;BME280;21185;50.978;13.720;2023-04-26T20:59:22;98442.75;;;8.89;46.83
34979;BME280;21185;50.978;13.720;2023-04-26T21:04:25;98443.78;;;8.79;46.99
34979;BME280;21185;50.978;13.720;2023-04-26T21:09:28;98454.03;;;8.70;47.14
34979;BME280;21185;50.978;13.720;2023-04-26T21:14:30;98451.91;;;8.66;47.10
34979;BME280;21185;50.978;13.720;2023-04-26T21:19:32;98457.66;;;8.60;47.23
34979;BME280;21185;50.978;13.720;2023-04-26T21:24:34;98457.28;;;8.55;47.12
34979;BME280;21185;50.978;13.720;2023-04-26T21:29:37;98456.75;;;8.51;47.13
34979;BME280;21185;50.978;13.720;2023-04-26T21:34:39;98467.53;;;8.47;47.48
34979;BME280;21185;50.978;13.720;2023-04-26T21:39:40;98465.50;;;8.40;47.55
34979;BME280;21185;50.978;13.720;2023-04-26T21:44:42;98477.38;;;8.33;47.48
34979;BME280;21185;50.978;13.720;2023-04-26T21:49:44;98479.69;;;8.27;47.70
34979;BME280;21185;50.978;13.720;2023-04-26T21:54:46;98481.06;;;8.21;47.63
34979;BME280;21185;50.978;13.720;2023-04-26T21:59:49;98485.03;;;8.16;47.92
34979;BME280;21185;50.978;13.720;2023-04-26T22:04:53;98488.72;;;8.13;48.07
34979;BME280;21185;50.978;13.720;2023-04-26T22:09:55;98491.06;;;8.06;48.04
34979;BME280;21185;50.978;13.720;2023-04-26T22:14:56;98492.56;;;7.99;48.08
34979;BME280;21185;50.978;13.720;2023-04-26T22:19:58;98499.66;;;7.97;48.19
34979;BME280;21185;50.978;13.720;2023-04-26T22:25:00;98491.09;;;7.97;48.12
34979;BME280;21185;50.978;13.720;2023-04-26T22:30:03;98499.94;;;7.94;48.31
34979;BME280;21185;50.978;13.720;2023-04-26T22:35:25;98497.75;;;7.90;48.39
34979;BME280;21185;50.978;13.720;2023-04-26T22:40:28;98504.31;;;7.84;48.55
34979;BME280;21185;50.978;13.720;2023-04-26T22:45:30;98503.09;;;7.78;48.51
34979;BME280;21185;50.978;13.720;2023-04-26T22:50:32;98506.22;;;7.72;48.59
34979;BME280;21185;50.978;13.720;2023-04-26T22:55:33;98518.75;;;7.67;48.78
34979;BME280;21185;50.978;13.720;2023-04-26T23:00:35;98515.63;;;7.64;48.64
34979;BME280;21185;50.978;13.720;2023-04-26T23:05:37;98522.56;;;7.63;48.64
34979;BME280;21185;50.978;13.720;2023-04-26T23:10:39;98515.75;;;7.62;48.81
34979;BME280;21185;50.978;13.720;2023-04-26T23:15:41;98522.16;;;7.58;48.76
34979;BME280;21185;50.978;13.720;2023-04-26T23:20:43;98523.25;;;7.56;48.70
34979;BME280;21185;50.978;13.720;2023-04-26T23:25:44;98516.59;;;7.53;48.72
34979;BME280;21185;50.978;13.720;2023-04-26T23:30:48;98519.28;;;7.52;49.01
34979;BME280;21185;50.978;13.720;2023-04-26T23:35:53;98523.25;;;7.46;48.83
34979;BME280;21185;50.978;13.720;2023-04-26T23:40:55;98525.41;;;7.41;48.92
34979;BME280;21185;50.978;13.720;2023-04-26T23:45:58;98521.63;;;7.35;48.91
34979;BME280;21185;50.978;13.720;2023-04-26T23:51:00;98520.25;;;7.31;49.17
34979;BME280;21185;50.978;13.720;2023-04-26T23:56:02;98511.00;;;7.29;49.19
